createdAt,value
2022-10-01T00:01:14.335Z,8.55
2022-10-01T00:04:01.075Z,8.58
2022-10-01T00:06:46.870Z,8.58
2022-10-01T00:09:32.531Z,8.41
2022-10-01T00:12:18.251Z,8.46
2022-10-01T00:15:06.169Z,8.38
2022-10-01T00:17:53.101Z,8.36
2022-10-01T00:20:43.435Z,8.46
2022-10-01T00:23:29.690Z,8.43
2022-10-01T00:26:18.030Z,8.43
2022-10-01T00:29:06.448Z,8.33
2022-10-01T00:31:52.188Z,8.41
2022-10-01T00:34:38.172Z,8.36
2022-10-01T00:37:23.602Z,8.35
2022-10-01T00:40:09.563Z,8.19
2022-10-01T00:42:55.184Z,8.30
2022-10-01T00:45:41.394Z,8.27
2022-10-01T00:48:29.530Z,8.27
2022-10-01T00:51:15.772Z,8.11
2022-10-01T00:54:08.437Z,8.24
2022-10-01T00:56:56.437Z,8.03
2022-10-01T00:59:42.032Z,8.12
2022-10-01T01:02:27.717Z,8.13
2022-10-01T01:05:14.098Z,8.10
2022-10-01T01:08:02.945Z,7.99
2022-10-01T01:11:23.155Z,8.06
2022-10-01T01:14:29.607Z,7.97
2022-10-01T01:17:50.928Z,7.99
2022-10-01T01:20:45.607Z,7.96
2022-10-01T01:23:37.123Z,7.93
2022-10-01T01:26:41.129Z,7.77
2022-10-01T01:29:34.990Z,7.82
2022-10-01T01:32:27.207Z,7.77
2022-10-01T01:35:18.922Z,7.88
2022-10-01T01:38:11.444Z,7.86
2022-10-01T01:40:59.332Z,7.85
2022-10-01T01:43:47.224Z,7.76
2022-10-01T01:46:36.550Z,7.75
2022-10-01T01:49:23.526Z,7.67
2022-10-01T01:52:15.080Z,7.66
2022-10-01T01:55:05.245Z,7.65
2022-10-01T01:57:51.435Z,7.67
2022-10-01T02:00:37.591Z,7.50
2022-10-01T02:03:26.060Z,7.60
2022-10-01T02:06:26.188Z,7.52
2022-10-01T02:09:24.329Z,7.69
2022-10-01T02:12:35.611Z,7.61
2022-10-01T02:15:42.288Z,7.58
2022-10-01T02:19:04.792Z,7.54
2022-10-01T02:22:12.919Z,7.56
2022-10-01T02:25:00.249Z,7.45
2022-10-01T02:27:55.821Z,7.47
2022-10-01T02:30:42.453Z,7.61
2022-10-01T02:33:31.464Z,7.57
2022-10-01T02:36:18.709Z,7.44
2022-10-01T02:39:06.689Z,7.41
2022-10-01T02:41:54.172Z,7.38
2022-10-01T02:44:42.586Z,7.54
2022-10-01T02:47:40.807Z,7.40
2022-10-01T02:50:32.339Z,7.47
2022-10-01T02:53:32.526Z,7.46
2022-10-01T02:56:46.070Z,7.43
2022-10-01T02:59:34.918Z,7.31
2022-10-01T03:02:20.940Z,7.42
2022-10-01T03:05:08.071Z,7.48
2022-10-01T03:07:53.845Z,7.40
2022-10-01T03:10:42.416Z,7.42
2022-10-01T03:13:31.837Z,7.54
2022-10-01T03:16:17.648Z,7.47
2022-10-01T03:19:03.668Z,7.33
2022-10-01T03:21:49.380Z,7.37
2022-10-01T03:24:35.145Z,7.39
2022-10-01T03:27:21.808Z,7.47
2022-10-01T03:30:08.296Z,7.43
2022-10-01T03:32:54.227Z,7.39
2022-10-01T03:35:39.778Z,7.48
2022-10-01T03:38:25.674Z,7.29
2022-10-01T03:41:11.103Z,7.25
2022-10-01T03:44:00.373Z,7.22
2022-10-01T03:46:46.428Z,7.35
2022-10-01T03:49:32.267Z,7.31
2022-10-01T03:52:18.055Z,7.26
2022-10-01T03:55:04.069Z,7.18
2022-10-01T03:57:50.210Z,7.18
2022-10-01T04:00:36.303Z,7.18
2022-10-01T04:03:22.228Z,7.16
2022-10-01T04:06:07.950Z,7.28
2022-10-01T04:08:54.122Z,7.28
2022-10-01T04:11:40.221Z,7.26
2022-10-01T04:14:26.095Z,7.17
2022-10-01T04:17:11.837Z,7.18
2022-10-01T04:19:57.789Z,7.03
2022-10-01T04:22:44.573Z,7.15
2022-10-01T04:25:31.115Z,7.14
2022-10-01T04:28:17.522Z,7.05
2022-10-01T04:31:21.670Z,7.14
2022-10-01T04:34:07.150Z,7.00
2022-10-01T04:36:52.619Z,7.10
2022-10-01T04:39:38.233Z,7.06
2022-10-01T04:42:23.851Z,6.88
2022-10-01T04:45:10.626Z,6.95
2022-10-01T04:47:56.869Z,6.96
2022-10-01T04:50:42.739Z,7.09
2022-10-01T04:53:28.887Z,7.09
2022-10-01T04:56:14.793Z,6.96
2022-10-01T04:59:00.548Z,6.89
2022-10-01T05:01:46.445Z,6.92
2022-10-01T05:04:32.417Z,6.97
2022-10-01T05:07:19.432Z,6.86
2022-10-01T05:10:06.102Z,6.96
2022-10-01T05:12:52.232Z,6.89
2022-10-01T05:15:37.720Z,6.84
2022-10-01T05:18:23.502Z,6.93
2022-10-01T05:21:11.528Z,6.95
2022-10-01T05:23:57.391Z,6.88
2022-10-01T05:26:42.964Z,6.93
2022-10-01T05:29:29.183Z,6.96
2022-10-01T05:32:14.857Z,7.17
2022-10-01T05:35:00.741Z,7.14
2022-10-01T05:37:55.781Z,7.10
2022-10-01T05:40:45.289Z,7.29
2022-10-01T05:43:31.363Z,7.20
2022-10-01T05:46:17.702Z,7.40
2022-10-01T05:49:03.748Z,7.49
2022-10-01T05:51:49.754Z,7.56
2022-10-01T05:54:35.134Z,7.62
2022-10-01T05:57:21.703Z,7.44
2022-10-01T06:00:08.272Z,7.74
2022-10-01T06:02:59.555Z,7.53
2022-10-01T06:05:45.034Z,7.64
2022-10-01T06:08:32.223Z,7.84
2022-10-01T06:11:18.818Z,7.73
2022-10-01T06:14:05.086Z,7.97
2022-10-01T06:16:54.728Z,7.99
2022-10-01T06:19:40.402Z,8.08
2022-10-01T06:22:26.393Z,8.19
2022-10-01T06:25:15.011Z,8.27
2022-10-01T06:28:02.175Z,8.24
2022-10-01T06:30:49.740Z,8.42
2022-10-01T06:33:35.392Z,8.50
2022-10-01T06:36:21.057Z,8.56
2022-10-01T06:39:06.252Z,8.60
2022-10-01T06:41:52.363Z,8.70
2022-10-01T06:44:39.265Z,8.90
2022-10-01T06:47:24.647Z,8.90
2022-10-01T06:50:10.692Z,9.07
2022-10-01T06:52:57.293Z,9.28
2022-10-01T06:55:43.641Z,9.52
2022-10-01T06:58:29.342Z,9.61
2022-10-01T07:01:19.672Z,9.84
2022-10-01T07:04:05.896Z,10.15
2022-10-01T07:06:52.170Z,10.27
2022-10-01T07:09:38.120Z,10.54
2022-10-01T07:12:24.015Z,10.70
2022-10-01T07:15:10.231Z,10.76
2022-10-01T07:17:55.966Z,11.03
2022-10-01T07:20:41.870Z,11.10
2022-10-01T07:23:27.144Z,11.29
2022-10-01T07:26:12.920Z,11.46
2022-10-01T07:28:58.469Z,11.59
2022-10-01T07:31:44.131Z,11.76
2022-10-01T07:34:32.742Z,11.76
2022-10-01T07:37:18.760Z,11.93
2022-10-01T07:40:07.530Z,12.09
2022-10-01T07:42:54.735Z,12.21
2022-10-01T07:45:40.320Z,12.37
2022-10-01T07:48:27.460Z,12.56
2022-10-01T07:51:13.203Z,12.58
2022-10-01T07:53:59.245Z,12.65
2022-10-01T07:56:44.884Z,12.68
2022-10-01T07:59:31.406Z,12.78
2022-10-01T08:02:19.058Z,12.96
2022-10-01T08:05:17.463Z,12.95
2022-10-01T08:08:07.661Z,13.08
2022-10-01T08:10:53.729Z,13.19
2022-10-01T08:13:40.334Z,13.32
2022-10-01T08:16:29.236Z,13.40
2022-10-01T08:19:15.425Z,13.48
2022-10-01T08:22:00.998Z,13.55
2022-10-01T08:24:46.453Z,13.62
2022-10-01T08:27:32.560Z,13.64
2022-10-01T08:30:18.170Z,13.73
2022-10-01T08:33:04.073Z,13.78
2022-10-01T08:35:49.523Z,13.77
2022-10-01T08:38:36.687Z,13.92
2022-10-01T08:41:42.457Z,14.04
2022-10-01T08:44:33.156Z,14.11
2022-10-01T08:47:26.233Z,14.32
2022-10-01T08:50:18.001Z,14.36
2022-10-01T08:53:09.409Z,14.32
2022-10-01T08:55:55.754Z,14.25
2022-10-01T08:58:43.957Z,14.28
2022-10-01T09:01:30.999Z,14.29
2022-10-01T09:04:17.082Z,14.16
2022-10-01T09:07:29.702Z,14.19
2022-10-01T09:10:30.292Z,14.17
2022-10-01T09:13:27.832Z,14.17
2022-10-01T09:16:35.401Z,14.17
2022-10-01T09:19:33.737Z,14.12
2022-10-01T09:22:38.023Z,14.08
2022-10-01T09:25:27.309Z,14.08
2022-10-01T09:28:24.609Z,13.99
2022-10-01T09:31:19.901Z,14.14
2022-10-01T09:34:14.819Z,14.23
2022-10-01T09:37:14.620Z,14.22
2022-10-01T09:40:19.308Z,14.52
2022-10-01T09:43:08.257Z,14.70
2022-10-01T09:45:54.345Z,14.78
2022-10-01T09:48:48.726Z,15.15
2022-10-01T09:51:40.193Z,15.29
2022-10-01T09:54:35.885Z,15.43
2022-10-01T09:57:26.125Z,15.47
2022-10-01T10:00:17.411Z,15.49
2022-10-01T10:03:03.135Z,15.57
2022-10-01T10:05:49.583Z,15.70
2022-10-01T10:08:36.927Z,15.65
2022-10-01T10:11:25.674Z,15.63
2022-10-01T10:14:17.629Z,15.47
2022-10-01T10:17:16.229Z,15.56
2022-10-01T10:20:01.810Z,15.42
2022-10-01T10:22:47.364Z,15.63
2022-10-01T10:25:32.916Z,15.63
2022-10-01T10:28:23.963Z,15.54
2022-10-01T10:31:27.883Z,15.61
2022-10-01T10:34:19.168Z,15.49
2022-10-01T10:37:12.231Z,15.60
2022-10-01T10:39:58.283Z,15.50
2022-10-01T10:42:48.936Z,15.26
2022-10-01T10:45:38.801Z,15.28
2022-10-01T10:48:29.109Z,15.29
2022-10-01T10:51:14.624Z,15.34
2022-10-01T10:54:00.770Z,15.29
2022-10-01T10:57:04.297Z,15.42
2022-10-01T10:59:58.301Z,15.27
2022-10-01T11:02:56.857Z,15.26
2022-10-01T11:05:43.531Z,15.28
2022-10-01T11:08:30.094Z,15.23
2022-10-01T11:11:34.348Z,15.24
2022-10-01T11:14:51.124Z,15.20
2022-10-01T11:17:52.159Z,15.24
2022-10-01T11:21:04.909Z,15.01
2022-10-01T11:23:54.992Z,15.23
2022-10-01T11:27:12.507Z,15.20
2022-10-01T11:30:21.003Z,15.11
2022-10-01T11:33:16.671Z,15.21
2022-10-01T11:36:03.001Z,15.01
2022-10-01T11:39:00.476Z,14.94
2022-10-01T11:41:49.159Z,15.10
2022-10-01T11:44:40.003Z,15.12
2022-10-01T11:47:39.275Z,15.20
2022-10-01T11:50:39.448Z,15.12
2022-10-01T11:53:30.953Z,15.28
2022-10-01T11:56:43.447Z,15.32
2022-10-01T11:59:41.581Z,15.34
2022-10-01T12:02:35.088Z,15.30
2022-10-01T12:05:23.809Z,15.30
2022-10-01T12:08:19.320Z,15.15
2022-10-01T12:11:23.799Z,15.30
2022-10-01T12:14:17.874Z,15.32
2022-10-01T12:17:12.289Z,15.20
2022-10-01T12:20:00.190Z,15.27
2022-10-01T12:22:46.271Z,15.24
2022-10-01T12:25:57.476Z,15.22
2022-10-01T12:28:52.004Z,15.21
2022-10-01T12:31:51.306Z,15.18
2022-10-01T12:35:06.636Z,15.22
2022-10-01T12:37:58.471Z,15.25
2022-10-01T12:40:54.649Z,15.12
2022-10-01T12:43:50.526Z,15.26
2022-10-01T12:47:07.061Z,15.31
2022-10-01T12:50:04.436Z,15.23
2022-10-01T12:52:57.067Z,15.27
2022-10-01T12:56:01.510Z,15.18
2022-10-01T12:59:06.386Z,15.36
2022-10-01T13:02:31.166Z,15.44
2022-10-01T13:05:35.123Z,15.49
2022-10-01T13:08:29.687Z,15.47
2022-10-01T13:11:53.039Z,15.48
2022-10-01T13:14:44.315Z,15.41
2022-10-01T13:17:41.762Z,15.39
2022-10-01T13:20:35.785Z,15.30
2022-10-01T13:23:23.540Z,15.30
2022-10-01T13:26:40.441Z,15.28
2022-10-01T13:29:53.239Z,15.26
2022-10-01T13:32:52.778Z,15.27
2022-10-01T13:35:41.249Z,15.06
2022-10-01T13:38:30.483Z,15.10
2022-10-01T13:41:42.426Z,15.08
2022-10-01T13:44:33.882Z,14.99
2022-10-01T13:47:19.732Z,14.94
2022-10-01T13:50:08.027Z,14.87
2022-10-01T13:53:15.358Z,14.72
2022-10-01T13:56:01.867Z,14.80
2022-10-01T13:58:47.279Z,14.75
2022-10-01T14:01:42.083Z,14.83
2022-10-01T14:04:48.184Z,14.88
2022-10-01T14:07:36.158Z,14.97
2022-10-01T14:10:23.205Z,14.76
2022-10-01T14:13:28.872Z,14.94
2022-10-01T14:16:15.247Z,14.92
2022-10-01T14:19:01.783Z,14.87
2022-10-01T14:21:56.777Z,14.91
2022-10-01T14:24:54.778Z,14.90
2022-10-01T14:27:49.298Z,14.93
2022-10-01T14:30:54.665Z,14.94
2022-10-01T14:33:49.174Z,14.97
2022-10-01T14:36:47.554Z,14.83
2022-10-01T14:39:33.286Z,14.78
2022-10-01T14:42:18.961Z,14.73
2022-10-01T14:45:16.033Z,14.73
2022-10-01T14:48:04.229Z,14.67
2022-10-01T14:50:52.233Z,14.76
2022-10-01T14:53:38.566Z,14.63
2022-10-01T14:56:24.140Z,14.72
2022-10-01T14:59:18.241Z,14.66
2022-10-01T15:02:17.405Z,14.42
2022-10-01T15:05:35.090Z,14.64
2022-10-01T15:08:23.851Z,14.56
2022-10-01T15:11:29.900Z,14.36
2022-10-01T15:14:21.773Z,14.43
2022-10-01T15:17:10.489Z,14.41
2022-10-01T15:19:56.666Z,14.27
2022-10-01T15:22:45.189Z,14.29
2022-10-01T15:25:31.441Z,13.91
2022-10-01T15:28:27.835Z,13.39
2022-10-01T15:31:13.834Z,13.10
2022-10-01T15:34:04.442Z,12.85
2022-10-01T15:36:50.578Z,12.68
2022-10-01T15:39:38.816Z,12.37
2022-10-01T15:42:28.237Z,12.34
2022-10-01T15:45:25.780Z,12.26
2022-10-01T15:48:29.209Z,12.16
2022-10-01T15:51:19.548Z,11.98
2022-10-01T15:54:08.571Z,12.02
2022-10-01T15:56:54.237Z,11.91
2022-10-01T15:59:40.105Z,11.74
2022-10-01T16:02:28.177Z,11.76
2022-10-01T16:05:17.584Z,11.73
2022-10-01T16:08:03.505Z,11.59
2022-10-01T16:11:09.058Z,11.69
2022-10-01T16:14:17.577Z,11.66
2022-10-01T16:17:27.978Z,11.64
2022-10-01T16:20:14.106Z,11.48
2022-10-01T16:23:36.622Z,11.56
2022-10-01T16:26:34.031Z,11.50
2022-10-01T16:29:23.021Z,11.35
2022-10-01T16:32:13.941Z,11.42
2022-10-01T16:35:21.181Z,11.45
2022-10-01T16:38:08.445Z,11.32
2022-10-01T16:40:54.288Z,11.28
2022-10-01T16:43:40.106Z,11.43
2022-10-01T16:46:25.548Z,11.42
2022-10-01T16:49:14.076Z,11.32
2022-10-01T16:51:59.933Z,11.37
2022-10-01T16:54:47.358Z,11.32
2022-10-01T16:57:32.839Z,11.30
2022-10-01T17:00:20.912Z,11.42
2022-10-01T17:03:10.106Z,11.43
2022-10-01T17:05:55.954Z,11.31
2022-10-01T17:08:41.949Z,11.28
2022-10-01T17:11:29.895Z,11.42
2022-10-01T17:14:21.112Z,11.39
2022-10-01T17:17:07.035Z,11.42
2022-10-01T17:19:52.753Z,11.31
2022-10-01T17:22:39.522Z,11.46
2022-10-01T17:25:31.058Z,11.36
2022-10-01T17:28:20.266Z,11.29
2022-10-01T17:31:07.562Z,11.40
2022-10-01T17:33:53.805Z,11.30
2022-10-01T17:36:39.940Z,11.38
2022-10-01T17:39:26.581Z,11.38
2022-10-01T17:42:15.050Z,11.40
2022-10-01T17:45:02.937Z,11.43
2022-10-01T17:47:50.406Z,11.38
2022-10-01T17:50:44.194Z,11.28
2022-10-01T17:53:36.164Z,11.44
2022-10-01T17:56:28.632Z,11.31
2022-10-01T17:59:16.171Z,11.43
2022-10-01T18:02:40.516Z,11.47
2022-10-01T18:05:25.040Z,11.43
2022-10-01T18:08:11.242Z,11.50
2022-10-01T18:11:09.445Z,11.40
2022-10-01T18:13:58.719Z,11.38
2022-10-01T18:16:45.177Z,11.42
2022-10-01T18:22:41.626Z,11.40
2022-10-01T18:25:28.873Z,11.48
2022-10-01T18:28:15.134Z,11.37
2022-10-01T18:31:15.645Z,11.51
2022-10-01T18:34:03.422Z,11.51
2022-10-01T18:37:06.860Z,11.51
2022-10-01T18:40:16.541Z,11.50
2022-10-01T18:43:14.292Z,11.45
2022-10-01T18:46:18.243Z,11.46
2022-10-01T18:49:22.745Z,11.47
2022-10-01T18:52:12.241Z,11.41
2022-10-01T18:55:25.768Z,11.32
2022-10-01T18:58:23.666Z,11.37
2022-10-01T19:01:15.357Z,11.36
2022-10-01T19:04:12.378Z,11.26
2022-10-01T19:07:16.344Z,11.29
2022-10-01T19:10:19.599Z,11.22
2022-10-01T19:13:26.823Z,11.29
2022-10-01T19:16:31.074Z,11.29
2022-10-01T19:19:28.822Z,11.31
2022-10-01T19:22:24.533Z,11.32
2022-10-01T19:25:45.501Z,11.34
2022-10-01T19:29:04.314Z,11.30
2022-10-01T19:32:00.334Z,11.31
2022-10-01T19:34:50.092Z,11.27
2022-10-01T19:37:43.537Z,11.14
2022-10-01T19:40:35.050Z,11.19
2022-10-01T19:43:38.508Z,11.27
2022-10-01T19:46:36.642Z,11.24
2022-10-01T19:49:27.695Z,11.12
2022-10-01T19:52:18.239Z,11.22
2022-10-01T19:55:13.251Z,11.15
2022-10-01T19:57:59.638Z,11.26
2022-10-01T20:00:53.008Z,11.14
2022-10-01T20:03:57.781Z,11.23
2022-10-01T20:06:46.856Z,11.14
2022-10-01T20:09:45.246Z,11.20
2022-10-01T20:12:41.715Z,11.11
2022-10-01T20:15:45.745Z,11.17
2022-10-01T20:18:51.728Z,11.19
2022-10-01T20:22:02.729Z,11.23
2022-10-01T20:25:00.189Z,11.23
2022-10-01T20:28:02.933Z,11.15
2022-10-01T20:31:10.941Z,11.20
2022-10-01T20:34:04.941Z,11.10
2022-10-01T20:37:12.673Z,11.15
2022-10-01T20:40:17.919Z,11.05
2022-10-01T20:43:34.599Z,11.21
2022-10-01T20:46:33.873Z,11.24
2022-10-01T20:49:41.809Z,11.26
2022-10-01T20:52:36.648Z,11.14
2022-10-01T20:55:29.158Z,11.29
2022-10-01T20:58:23.578Z,11.27
2022-10-01T21:01:30.485Z,11.28
2022-10-01T21:04:20.521Z,11.27
2022-10-01T21:07:28.399Z,11.25
2022-10-01T21:10:22.125Z,11.04
2022-10-01T21:13:17.372Z,11.25
2022-10-01T21:16:12.943Z,11.28
2022-10-01T21:18:58.457Z,11.25
2022-10-01T21:21:55.306Z,11.12
2022-10-01T21:25:09.375Z,11.25
2022-10-01T21:28:13.060Z,11.13
2022-10-01T21:31:08.327Z,11.06
2022-10-01T21:34:07.899Z,11.23
2022-10-01T21:37:12.492Z,11.23
2022-10-01T21:40:01.511Z,11.25
2022-10-01T21:43:02.841Z,11.18
2022-10-01T21:45:59.612Z,11.13
2022-10-01T21:48:53.912Z,11.27
2022-10-01T21:52:00.032Z,11.22
2022-10-01T21:55:15.364Z,11.19
2022-10-01T21:58:16.570Z,11.21
2022-10-01T22:01:15.888Z,11.20
2022-10-01T22:04:27.020Z,11.18
2022-10-01T22:07:51.429Z,11.19
2022-10-01T22:10:44.592Z,11.19
2022-10-01T22:13:33.953Z,11.12
2022-10-01T22:16:22.038Z,11.18
2022-10-01T22:19:11.984Z,11.05
2022-10-01T22:22:09.516Z,11.15
2022-10-01T22:24:58.789Z,11.05
2022-10-01T22:27:51.753Z,11.13
2022-10-01T22:30:39.343Z,11.10
2022-10-01T22:33:33.903Z,11.19
2022-10-01T22:36:47.370Z,11.21
2022-10-01T22:39:39.874Z,11.06
2022-10-01T22:42:30.511Z,11.23
2022-10-01T22:45:17.192Z,11.16
2022-10-01T22:48:30.796Z,11.27
2022-10-01T22:51:35.495Z,11.31
2022-10-01T22:54:30.173Z,11.29
2022-10-01T22:57:40.190Z,11.34
2022-10-01T23:00:26.279Z,11.20
2022-10-01T23:03:24.746Z,11.35
2022-10-01T23:06:19.625Z,11.39
2022-10-01T23:09:33.766Z,11.40
2022-10-01T23:12:45.241Z,11.42
2022-10-01T23:15:56.359Z,11.40
2022-10-01T23:19:10.667Z,11.30
2022-10-01T23:22:23.259Z,11.33
2022-10-01T23:25:18.803Z,11.35
2022-10-01T23:28:15.118Z,11.42
2022-10-01T23:31:17.728Z,11.43
2022-10-01T23:34:16.616Z,11.32
2022-10-01T23:37:30.468Z,11.40
2022-10-01T23:40:18.481Z,11.36
2022-10-01T23:43:11.824Z,11.38
2022-10-01T23:46:05.327Z,11.35
2022-10-01T23:48:54.078Z,11.33
2022-10-01T23:51:55.792Z,11.21
2022-10-01T23:54:49.033Z,11.23
2022-10-01T23:57:38.021Z,11.21
